Terminal Aerodrome Forecast
Issued by NWS

Home | Current Version | Previous Version | Text Only | Print | Product List | Glossary On
Versions: 1 2 3 4 5 6 7 8 9 10 11 12 13 14 15 16 17 18 19 20 21
711
FTUS46 KEKA 230520
TAFUKI
TAF
KUKI 230520Z 2306/2406 02004KT P6SM BKN040
     FM231000 00000KT 6SM BR SCT010 SCT250
     FM231700 VRB03KT P6SM SCT250
     FM232300 16010KT P6SM VCSH OVC040
     FM240300 16010KT 6SM -RA OVC025=

USA.gov is the U.S. government's official web portal to all federal, state and local government web resources and services.